createdAt,value
2018-08-13T00:01:03.263Z,10.87
2018-08-13T00:03:32.441Z,8.73
2018-08-13T00:06:01.335Z,9.50
2018-08-13T00:08:30.198Z,8.77
2018-08-13T00:10:59.054Z,8.27
2018-08-13T00:13:27.904Z,9.33
2018-08-13T00:15:56.835Z,9.03
2018-08-13T00:18:25.705Z,8.53
2018-08-13T00:20:54.689Z,7.77
2018-08-13T00:23:23.578Z,10.93
2018-08-13T00:25:52.518Z,8.40
2018-08-13T00:28:21.419Z,8.63
2018-08-13T00:30:50.365Z,9.60
2018-08-13T00:33:19.211Z,9.17
2018-08-13T00:35:48.104Z,11.10
2018-08-13T00:38:17.065Z,7.97
2018-08-13T00:40:45.949Z,9.77
2018-08-13T00:43:14.864Z,10.20
2018-08-13T00:45:43.797Z,9.33
2018-08-13T00:48:12.696Z,13.93
2018-08-13T00:50:41.699Z,10.30
2018-08-13T00:53:10.514Z,11.30
2018-08-13T00:55:39.373Z,10.27
2018-08-13T00:58:08.261Z,9.97
2018-08-13T01:00:37.219Z,10.80
2018-08-13T01:03:07.284Z,12.03
2018-08-13T01:05:36.259Z,9.70
2018-08-13T01:08:05.167Z,10.17
2018-08-13T01:10:34.090Z,9.27
2018-08-13T01:13:03.039Z,9.70
2018-08-13T01:15:32.099Z,9.67
2018-08-13T01:18:00.981Z,10.90
2018-08-13T01:20:29.855Z,10.33
2018-08-13T01:22:58.680Z,11.07
2018-08-13T01:25:27.768Z,8.97
2018-08-13T01:27:56.700Z,9.13
2018-08-13T01:30:25.608Z,10.47
2018-08-13T01:32:54.544Z,8.97
2018-08-13T01:35:23.437Z,9.13
2018-08-13T01:37:52.318Z,10.10
2018-08-13T01:40:21.267Z,9.53
2018-08-13T01:42:50.098Z,11.13
2018-08-13T01:45:19.024Z,12.30
2018-08-13T01:47:47.916Z,9.00
2018-08-13T01:50:16.813Z,9.97
2018-08-13T01:52:45.721Z,9.53
2018-08-13T01:55:14.599Z,9.50
2018-08-13T01:57:43.433Z,10.87
2018-08-13T02:00:14.881Z,9.43
2018-08-13T02:02:43.840Z,10.00
2018-08-13T02:05:12.777Z,10.43
2018-08-13T02:07:41.635Z,8.87
2018-08-13T02:10:12.044Z,9.60
2018-08-13T02:12:41.193Z,9.03
2018-08-13T02:15:10.214Z,9.17
2018-08-13T02:17:39.115Z,8.13
2018-08-13T02:20:09.033Z,9.80
2018-08-13T02:22:37.712Z,8.80
2018-08-13T02:25:07.514Z,9.70
2018-08-13T02:27:36.524Z,8.93
2018-08-13T02:30:08.478Z,12.50
2018-08-13T02:32:37.569Z,9.70
2018-08-13T02:35:07.736Z,9.40
2018-08-13T02:37:36.748Z,9.63
2018-08-13T02:40:07.177Z,9.87
2018-08-13T02:42:36.281Z,10.80
2018-08-13T02:45:07.040Z,9.37
2018-08-13T02:47:35.874Z,9.53
2018-08-13T02:50:05.819Z,8.97
2018-08-13T02:52:34.726Z,9.80
2018-08-13T02:55:03.648Z,12.07
2018-08-13T02:57:32.473Z,9.30
2018-08-13T03:00:01.346Z,8.03
2018-08-13T03:02:30.219Z,9.23
2018-08-13T03:04:59.079Z,8.20
2018-08-13T03:07:27.902Z,9.93
2018-08-13T03:09:56.758Z,10.57
2018-08-13T03:12:25.631Z,10.70
2018-08-13T03:14:54.512Z,9.70
2018-08-13T03:17:32.197Z,9.27
2018-08-13T03:20:01.974Z,8.50
2018-08-13T03:22:31.562Z,9.47
2018-08-13T03:25:01.586Z,10.43
2018-08-13T03:27:30.636Z,9.17
2018-08-13T03:30:00.554Z,10.27
2018-08-13T03:32:29.625Z,9.10
2018-08-13T03:34:58.545Z,9.33
2018-08-13T03:37:27.434Z,8.43
2018-08-13T03:39:56.401Z,9.17
2018-08-13T03:42:25.278Z,9.10
2018-08-13T03:44:54.188Z,9.63
2018-08-13T03:47:23.104Z,9.03
2018-08-13T03:49:52.007Z,8.37
2018-08-13T03:52:20.884Z,9.33
2018-08-13T03:54:49.786Z,7.90
2018-08-13T03:57:18.576Z,8.33
2018-08-13T03:59:47.465Z,9.07
2018-08-13T04:02:16.436Z,7.80
2018-08-13T04:04:45.285Z,9.27
2018-08-13T04:07:14.264Z,10.77
2018-08-13T04:09:44.764Z,8.57
2018-08-13T04:12:14.615Z,12.27
2018-08-13T04:14:43.546Z,11.07
2018-08-13T04:17:12.380Z,8.40
2018-08-13T04:19:41.295Z,8.53
2018-08-13T04:22:10.189Z,8.77
2018-08-13T04:24:39.058Z,8.83
2018-08-13T04:27:07.980Z,10.00
2018-08-13T04:29:36.800Z,8.90
2018-08-13T04:32:05.675Z,10.43
2018-08-13T04:34:34.650Z,10.33
2018-08-13T04:37:03.683Z,10.90
2018-08-13T04:39:32.620Z,9.87
2018-08-13T04:42:01.476Z,10.10
2018-08-13T04:44:30.409Z,8.97
2018-08-13T04:46:59.389Z,9.73
2018-08-13T04:49:28.312Z,7.80
2018-08-13T04:51:57.298Z,8.07
2018-08-13T04:54:26.189Z,9.90
2018-08-13T04:56:55.155Z,8.97
2018-08-13T04:59:24.117Z,10.43
2018-08-13T05:01:53.137Z,10.93
2018-08-13T05:04:22.071Z,9.80
2018-08-13T05:06:50.961Z,10.17
2018-08-13T05:09:19.860Z,9.50
2018-08-13T05:11:48.756Z,12.73
2018-08-13T05:14:17.657Z,9.60
2018-08-13T05:16:46.559Z,10.60
2018-08-13T05:19:15.465Z,9.83
2018-08-13T05:21:44.405Z,10.23
2018-08-13T05:24:13.294Z,10.70
2018-08-13T05:26:42.764Z,9.00
2018-08-13T05:29:11.675Z,9.70
2018-08-13T05:31:40.518Z,9.20
2018-08-13T05:34:09.496Z,8.53
2018-08-13T05:36:38.534Z,9.20
2018-08-13T05:39:10.276Z,10.43
2018-08-13T05:41:39.320Z,9.47
2018-08-13T05:44:08.300Z,11.33
2018-08-13T05:46:37.217Z,11.20
2018-08-13T05:49:06.244Z,13.00
2018-08-13T05:51:35.164Z,9.10
2018-08-13T05:54:04.186Z,10.10
2018-08-13T05:56:33.077Z,9.77
2018-08-13T05:59:01.984Z,9.90
2018-08-13T06:01:30.842Z,9.83
2018-08-13T06:03:59.777Z,10.50
2018-08-13T06:06:28.678Z,11.07
2018-08-13T06:08:57.566Z,11.33
2018-08-13T06:11:26.578Z,9.70
2018-08-13T06:13:55.356Z,10.57
2018-08-13T06:16:24.226Z,8.67
2018-08-13T06:18:53.459Z,9.87
2018-08-13T06:21:22.421Z,12.03
2018-08-13T06:23:51.300Z,9.27
2018-08-13T06:26:20.183Z,9.57
2018-08-13T06:28:49.071Z,15.00
2018-08-13T06:31:17.948Z,10.70
2018-08-13T06:33:46.818Z,15.53
2018-08-13T06:36:15.807Z,12.00
2018-08-13T06:38:44.744Z,10.60
2018-08-13T06:41:13.650Z,11.20
2018-08-13T06:43:42.593Z,10.97
2018-08-13T06:46:11.465Z,10.27
2018-08-13T06:48:40.324Z,9.73
2018-08-13T06:51:09.233Z,17.07
2018-08-13T06:53:39.348Z,9.47
2018-08-13T06:56:08.609Z,9.80
2018-08-13T06:58:37.525Z,10.13
2018-08-13T07:01:06.593Z,9.33
2018-08-13T07:03:35.549Z,11.30
2018-08-13T07:06:04.549Z,11.07
2018-08-13T07:08:33.452Z,8.70
2018-08-13T07:11:02.382Z,9.53
2018-08-13T07:13:31.275Z,9.47
2018-08-13T07:16:00.184Z,8.63
2018-08-13T07:18:29.062Z,9.03
2018-08-13T07:20:57.994Z,8.77
2018-08-13T07:23:32.439Z,8.80
2018-08-13T07:26:06.007Z,14.23
2018-08-13T07:28:34.920Z,8.73
2018-08-13T07:31:03.775Z,9.43
2018-08-13T07:33:32.505Z,8.30
2018-08-13T07:36:01.513Z,8.63
2018-08-13T07:38:30.518Z,8.50
2018-08-13T07:40:59.418Z,8.50
2018-08-13T07:43:28.364Z,8.70
2018-08-13T07:45:57.340Z,10.33
2018-08-13T07:48:26.320Z,8.90
2018-08-13T07:50:55.193Z,7.63
2018-08-13T07:53:24.214Z,8.63
2018-08-13T07:55:53.148Z,8.00
2018-08-13T07:58:22.102Z,8.67
2018-08-13T08:00:51.070Z,7.87
2018-08-13T08:03:19.995Z,18.43
2018-08-13T08:05:48.937Z,10.47
2018-08-13T08:08:17.830Z,9.37
2018-08-13T08:10:46.827Z,8.90
2018-08-13T08:13:15.705Z,7.70
2018-08-13T08:15:44.579Z,9.17
2018-08-13T08:18:13.447Z,8.07
2018-08-13T08:20:42.546Z,9.03
2018-08-13T08:23:11.457Z,7.47
2018-08-13T08:25:40.422Z,6.73
2018-08-13T08:28:09.388Z,7.20
2018-08-13T08:30:38.345Z,7.80
2018-08-13T08:33:07.604Z,7.83
2018-08-13T08:35:36.543Z,6.63
2018-08-13T08:38:06.001Z,7.87
2018-08-13T08:40:35.118Z,7.67
2018-08-13T08:43:04.120Z,6.83
2018-08-13T08:45:33.027Z,7.23
2018-08-13T08:48:01.909Z,7.23
2018-08-13T08:50:30.873Z,7.33
2018-08-13T08:52:59.784Z,8.50
2018-08-13T08:55:28.783Z,8.20
2018-08-13T08:57:57.679Z,7.97
2018-08-13T09:00:26.578Z,7.63
2018-08-13T09:02:55.549Z,7.67
2018-08-13T09:05:24.482Z,8.10
2018-08-13T09:07:53.483Z,9.20
2018-08-13T09:10:22.451Z,8.18
2018-08-13T09:12:51.323Z,7.33
2018-08-13T09:15:20.223Z,8.73
2018-08-13T09:17:54.486Z,8.60
2018-08-13T09:20:28.448Z,9.43
2018-08-13T09:23:02.619Z,7.62
2018-08-13T09:25:36.571Z,7.92
2018-08-13T09:28:10.542Z,7.45
2018-08-13T09:30:44.658Z,7.85
2018-08-13T09:33:18.661Z,7.62
2018-08-13T09:35:47.151Z,7.50
2018-08-13T09:38:15.665Z,7.50
2018-08-13T09:40:44.168Z,7.17
2018-08-13T09:43:12.681Z,7.72
2018-08-13T09:45:41.214Z,7.00
2018-08-13T09:48:09.812Z,7.12
2018-08-13T09:50:38.296Z,10.35
2018-08-13T09:53:06.801Z,9.10
2018-08-13T09:55:35.313Z,6.90
2018-08-13T09:58:03.826Z,9.03
2018-08-13T10:00:37.612Z,7.00
2018-08-13T10:03:06.067Z,9.70
2018-08-13T10:05:34.585Z,7.85
2018-08-13T10:08:03.060Z,7.42
2018-08-13T10:10:31.562Z,7.20
2018-08-13T10:13:00.100Z,6.60
2018-08-13T10:15:28.600Z,7.00
2018-08-13T10:17:57.103Z,6.78
2018-08-13T10:20:25.676Z,5.80
2018-08-13T10:22:54.146Z,6.00
2018-08-13T10:25:22.760Z,7.42
2018-08-13T10:27:51.288Z,8.58
2018-08-13T10:30:19.883Z,6.62
2018-08-13T10:32:48.388Z,6.67
2018-08-13T10:35:16.968Z,6.17
2018-08-13T10:37:45.494Z,5.58
2018-08-13T10:40:17.465Z,5.30
2018-08-13T10:42:46.365Z,5.83
2018-08-13T10:45:15.250Z,5.20
2018-08-13T10:47:43.824Z,6.37
2018-08-13T10:50:13.285Z,5.00
2018-08-13T10:52:41.890Z,5.95
2018-08-13T10:55:11.391Z,5.58
2018-08-13T10:57:39.963Z,5.28
2018-08-13T11:00:10.320Z,4.92
2018-08-13T11:02:38.883Z,5.47
2018-08-13T11:05:08.269Z,6.58
2018-08-13T11:07:36.735Z,5.22
2018-08-13T11:10:06.179Z,4.50
2018-08-13T11:12:34.807Z,7.28
2018-08-13T11:15:03.345Z,5.83
2018-08-13T11:17:31.813Z,5.00
2018-08-13T11:20:00.314Z,6.28
2018-08-13T11:22:28.759Z,4.70
2018-08-13T11:24:57.237Z,5.40
2018-08-13T11:27:25.764Z,4.50
2018-08-13T11:29:54.319Z,4.28
2018-08-13T11:32:22.760Z,4.97
2018-08-13T11:34:51.266Z,4.33
2018-08-13T11:37:19.730Z,4.80
2018-08-13T11:39:48.239Z,4.55
2018-08-13T11:42:16.717Z,4.10
2018-08-13T11:44:45.765Z,4.37
2018-08-13T11:47:14.207Z,4.25
2018-08-13T11:49:42.708Z,4.15
2018-08-13T11:52:11.213Z,4.47
2018-08-13T11:54:40.565Z,4.03
2018-08-13T11:57:09.084Z,5.05
2018-08-13T11:59:37.567Z,4.12
2018-08-13T12:02:06.092Z,4.92
2018-08-13T12:04:34.611Z,4.40
2018-08-13T12:07:03.089Z,5.22
2018-08-13T12:09:31.526Z,5.53
2018-08-13T12:12:00.028Z,3.80
2018-08-13T12:14:28.472Z,4.58
2018-08-13T12:16:56.962Z,5.08
2018-08-13T12:19:25.417Z,4.60
2018-08-13T12:21:53.905Z,3.33
2018-08-13T12:24:22.351Z,3.65
2018-08-13T12:26:50.904Z,5.47
2018-08-13T12:29:19.395Z,5.37
2018-08-13T12:31:47.877Z,3.83
2018-08-13T12:34:16.409Z,4.20
2018-08-13T12:36:44.858Z,4.15
2018-08-13T12:39:13.443Z,4.05
2018-08-13T12:41:41.997Z,5.10
2018-08-13T12:44:10.524Z,4.53
2018-08-13T12:46:39.058Z,4.05
2018-08-13T12:49:07.594Z,4.25
2018-08-13T12:51:36.124Z,4.55
2018-08-13T12:54:04.649Z,4.85
2018-08-13T12:56:33.189Z,4.40
2018-08-13T12:59:01.763Z,4.97
2018-08-13T13:01:30.281Z,4.20
2018-08-13T13:03:59.121Z,4.25
2018-08-13T13:06:27.636Z,4.92
2018-08-13T13:08:56.170Z,4.40
2018-08-13T13:11:24.757Z,6.22
2018-08-13T13:13:53.263Z,3.77
2018-08-13T13:16:21.801Z,4.17
2018-08-13T13:18:50.390Z,6.03
2018-08-13T13:21:19.020Z,4.45
2018-08-13T13:23:47.522Z,3.98
2018-08-13T13:26:16.078Z,4.67
2018-08-13T13:28:44.651Z,6.58
2018-08-13T13:31:13.159Z,4.72
2018-08-13T13:33:42.103Z,4.60
2018-08-13T13:36:10.610Z,6.10
2018-08-13T13:38:39.096Z,4.67
2018-08-13T13:41:07.628Z,4.62
2018-08-13T13:43:36.148Z,3.92
2018-08-13T13:46:04.682Z,4.25
2018-08-13T13:48:33.187Z,4.30
2018-08-13T13:51:01.752Z,5.20
2018-08-13T13:53:30.240Z,5.10
2018-08-13T13:55:58.833Z,5.65
2018-08-13T13:58:27.389Z,4.40
2018-08-13T14:00:55.971Z,4.55
2018-08-13T14:03:24.465Z,4.47
2018-08-13T14:05:53.023Z,8.08
2018-08-13T14:08:21.546Z,4.55
2018-08-13T14:10:49.991Z,4.97
2018-08-13T14:13:18.456Z,4.47
2018-08-13T14:15:47.059Z,5.10
2018-08-13T14:18:15.563Z,5.03
2018-08-13T14:20:44.073Z,4.60
2018-08-13T14:23:12.594Z,4.90
2018-08-13T14:25:41.145Z,4.37
2018-08-13T14:28:09.695Z,4.40
2018-08-13T14:30:38.247Z,5.00
2018-08-13T14:33:07.187Z,4.87
2018-08-13T14:35:35.743Z,6.47
2018-08-13T14:38:04.285Z,4.28
2018-08-13T14:40:32.825Z,4.33
2018-08-13T14:43:01.340Z,5.53
2018-08-13T14:45:29.899Z,5.15
2018-08-13T14:47:58.459Z,4.17
2018-08-13T14:50:26.970Z,4.47
2018-08-13T14:52:55.547Z,6.67
2018-08-13T14:55:24.129Z,5.00
2018-08-13T14:57:52.695Z,4.87
2018-08-13T15:00:22.585Z,5.22
2018-08-13T15:02:51.476Z,5.25
2018-08-13T15:05:20.022Z,4.60
2018-08-13T15:07:48.501Z,4.28
2018-08-13T15:10:17.963Z,4.90
2018-08-13T15:12:46.462Z,5.47
2018-08-13T15:15:15.587Z,6.33
2018-08-13T15:17:44.107Z,5.50
2018-08-13T15:20:19.940Z,5.55
2018-08-13T15:22:48.495Z,5.55
2018-08-13T15:25:17.089Z,4.42
2018-08-13T15:27:45.673Z,4.70
2018-08-13T15:30:16.234Z,5.40
2018-08-13T15:32:45.906Z,4.55
2018-08-13T15:35:14.497Z,6.40
2018-08-13T15:37:43.604Z,4.90
2018-08-13T15:40:12.151Z,4.97
2018-08-13T15:42:40.745Z,4.70
2018-08-13T15:45:11.148Z,4.70
2018-08-13T15:47:40.135Z,5.42
2018-08-13T15:50:09.306Z,5.90
2018-08-13T15:52:37.861Z,5.28
2018-08-13T15:55:06.394Z,5.00
2018-08-13T15:57:34.872Z,5.40
2018-08-13T16:00:03.489Z,4.60
2018-08-13T16:02:31.996Z,6.08
2018-08-13T16:05:00.509Z,6.03
2018-08-13T16:07:29.036Z,12.45
2018-08-13T16:09:57.542Z,5.53
2018-08-13T16:12:26.219Z,5.97
2018-08-13T16:14:54.775Z,5.22
2018-08-13T16:17:23.273Z,5.92
2018-08-13T16:19:51.764Z,5.37
2018-08-13T16:22:20.317Z,5.28
2018-08-13T16:24:48.891Z,4.97
2018-08-13T16:27:17.384Z,5.75
2018-08-13T16:29:45.893Z,5.47
2018-08-13T16:32:14.445Z,6.47
2018-08-13T16:34:42.946Z,7.22
2018-08-13T16:37:11.496Z,4.80
2018-08-13T16:39:39.972Z,5.12
2018-08-13T16:42:08.535Z,6.87
2018-08-13T16:44:37.564Z,6.08
2018-08-13T16:47:06.138Z,5.83
2018-08-13T16:49:34.631Z,5.90
2018-08-13T16:52:03.143Z,5.90
2018-08-13T16:54:31.637Z,5.00
2018-08-13T16:57:00.116Z,5.42
2018-08-13T16:59:28.636Z,6.70
2018-08-13T17:01:57.150Z,5.37
2018-08-13T17:04:25.672Z,5.75
2018-08-13T17:06:54.146Z,8.53
2018-08-13T17:09:22.640Z,5.53
2018-08-13T17:11:51.477Z,5.72
2018-08-13T17:14:20.213Z,6.12
2018-08-13T17:16:49.314Z,7.85
2018-08-13T17:19:17.829Z,6.35
2018-08-13T17:21:46.331Z,7.08
2018-08-13T17:24:15.346Z,5.90
2018-08-13T17:26:44.028Z,5.50
2018-08-13T17:29:12.544Z,6.23
2018-08-13T17:31:41.057Z,4.92
2018-08-13T17:34:10.805Z,5.17
2018-08-13T17:36:40.103Z,6.47
2018-08-13T17:39:12.583Z,7.07
2018-08-13T17:41:41.919Z,9.63
2018-08-13T17:44:10.969Z,7.27
2018-08-13T17:46:39.967Z,4.90
2018-08-13T17:49:09.433Z,9.87
2018-08-13T17:51:38.705Z,6.67
2018-08-13T17:54:07.743Z,5.27
2018-08-13T17:56:36.260Z,6.13
2018-08-13T17:59:04.771Z,5.27
2018-08-13T18:01:33.258Z,2.50
2018-08-13T18:04:01.825Z,3.40
2018-08-13T18:06:30.329Z,8.03
2018-08-13T18:08:58.849Z,3.37
2018-08-13T18:11:27.373Z,5.63
2018-08-13T18:13:56.562Z,4.57
2018-08-13T18:16:25.116Z,11.50
2018-08-13T18:18:53.688Z,6.10
2018-08-13T18:21:22.233Z,3.83
2018-08-13T18:23:50.672Z,3.30
2018-08-13T18:26:19.148Z,3.53
2018-08-13T18:28:47.572Z,3.63
2018-08-13T18:31:16.058Z,3.67
2018-08-13T18:33:44.584Z,3.03
2018-08-13T18:36:13.084Z,4.00
2018-08-13T18:38:41.572Z,2.53
2018-08-13T18:41:10.060Z,2.50
2018-08-13T18:43:38.589Z,5.07
2018-08-13T18:46:07.152Z,2.70
2018-08-13T18:48:35.610Z,2.60
2018-08-13T18:51:04.100Z,3.73
2018-08-13T18:53:32.600Z,2.73
2018-08-13T18:56:01.159Z,3.37
2018-08-13T18:58:29.750Z,2.40
2018-08-13T19:00:58.235Z,2.60
2018-08-13T19:03:26.713Z,4.03
2018-08-13T19:05:55.191Z,3.40
2018-08-13T19:08:23.677Z,2.83
2018-08-13T19:10:52.204Z,2.87
2018-08-13T19:13:20.707Z,3.60
2018-08-13T19:15:49.193Z,3.00
2018-08-13T19:18:17.728Z,3.00
2018-08-13T19:20:46.231Z,2.43
2018-08-13T19:23:14.751Z,2.80
2018-08-13T19:25:43.299Z,3.27
2018-08-13T19:28:11.799Z,3.57
2018-08-13T19:30:40.555Z,3.27
2018-08-13T19:33:09.212Z,3.07
2018-08-13T19:35:37.836Z,2.40
2018-08-13T19:38:06.441Z,4.40
2018-08-13T19:40:34.981Z,2.93
2018-08-13T19:43:03.516Z,3.10
2018-08-13T19:45:32.099Z,2.83
2018-08-13T19:48:00.803Z,2.70
2018-08-13T19:50:29.338Z,3.87
2018-08-13T19:52:57.979Z,2.80
2018-08-13T19:55:26.550Z,2.43
2018-08-13T19:57:55.099Z,1.70
2018-08-13T20:00:25.596Z,2.70
2018-08-13T20:02:54.681Z,2.13
2018-08-13T20:05:24.452Z,6.53
2018-08-13T20:07:53.846Z,2.47
2018-08-13T20:10:22.379Z,4.23
2018-08-13T20:12:50.953Z,3.70
2018-08-13T20:15:19.518Z,2.73
2018-08-13T20:17:48.033Z,4.33
2018-08-13T20:20:17.200Z,4.37
2018-08-13T20:22:46.491Z,3.53
2018-08-13T20:25:15.688Z,3.63
2018-08-13T20:27:44.344Z,4.23
2018-08-13T20:30:14.431Z,3.40
2018-08-13T20:32:43.594Z,3.30
2018-08-13T20:35:12.133Z,3.37
2018-08-13T20:37:40.679Z,4.63
2018-08-13T20:40:11.281Z,3.70
2018-08-13T20:42:40.383Z,3.43
2018-08-13T20:45:10.490Z,5.83
2018-08-13T20:47:38.959Z,3.67
2018-08-13T20:50:08.818Z,4.00
2018-08-13T20:52:37.360Z,4.77
2018-08-13T20:55:07.590Z,3.87
2018-08-13T20:57:36.124Z,3.80
2018-08-13T21:00:05.660Z,3.27
2018-08-13T21:02:34.205Z,3.63
2018-08-13T21:05:02.700Z,3.30
2018-08-13T21:07:31.177Z,5.20
2018-08-13T21:09:59.643Z,4.30
2018-08-13T21:12:28.091Z,5.00
2018-08-13T21:14:56.614Z,6.27
2018-08-13T21:17:25.156Z,6.80
2018-08-13T21:19:53.648Z,7.03
2018-08-13T21:22:22.240Z,5.17
2018-08-13T21:24:50.709Z,6.27
2018-08-13T21:27:19.229Z,9.17
2018-08-13T21:29:47.813Z,9.07
2018-08-13T21:32:16.294Z,6.20
2018-08-13T21:34:44.803Z,6.83
2018-08-13T21:37:13.307Z,7.57
2018-08-13T21:39:41.840Z,8.87
2018-08-13T21:42:10.368Z,13.93
2018-08-13T21:44:38.828Z,6.87
2018-08-13T21:47:07.320Z,7.13
2018-08-13T21:49:35.891Z,5.73
2018-08-13T21:52:04.583Z,5.30
2018-08-13T21:54:33.060Z,5.13
2018-08-13T21:57:01.606Z,5.93
2018-08-13T21:59:30.131Z,7.20
2018-08-13T22:01:58.666Z,4.27
2018-08-13T22:04:27.151Z,4.90
2018-08-13T22:06:55.656Z,4.37
2018-08-13T22:09:24.276Z,4.20
2018-08-13T22:11:52.785Z,7.67
2018-08-13T22:14:21.245Z,5.60
2018-08-13T22:16:49.757Z,4.10
2018-08-13T22:19:18.224Z,5.53
2018-08-13T22:21:46.755Z,8.00
2018-08-13T22:24:20.588Z,5.30
2018-08-13T22:26:49.134Z,5.13
2018-08-13T22:29:17.637Z,5.53
2018-08-13T22:31:46.088Z,6.83
2018-08-13T22:34:14.540Z,5.27
2018-08-13T22:36:43.027Z,6.47
2018-08-13T22:39:11.540Z,5.27
2018-08-13T22:41:40.011Z,6.40
2018-08-13T22:44:08.499Z,7.33
2018-08-13T22:46:36.965Z,6.93
2018-08-13T22:49:05.628Z,5.60
2018-08-13T22:51:34.109Z,5.20
2018-08-13T22:54:02.579Z,5.70
2018-08-13T22:56:31.111Z,7.40
2018-08-13T22:58:59.652Z,5.23
2018-08-13T23:01:28.113Z,7.83
2018-08-13T23:03:56.625Z,5.47
2018-08-13T23:06:25.092Z,6.47
2018-08-13T23:08:53.661Z,4.87
2018-08-13T23:11:22.145Z,8.87
2018-08-13T23:13:50.854Z,7.63
2018-08-13T23:16:19.505Z,4.93
2018-08-13T23:18:48.039Z,5.90
2018-08-13T23:21:16.581Z,5.80
2018-08-13T23:23:45.075Z,5.60
2018-08-13T23:26:13.594Z,6.63
2018-08-13T23:28:42.494Z,5.73
2018-08-13T23:31:10.990Z,7.57
2018-08-13T23:33:39.430Z,5.90
2018-08-13T23:36:07.882Z,5.93
2018-08-13T23:38:36.331Z,7.90
2018-08-13T23:41:04.771Z,6.53
2018-08-13T23:43:33.275Z,6.07
2018-08-13T23:46:01.772Z,6.80
2018-08-13T23:48:30.231Z,6.40
2018-08-13T23:50:58.713Z,6.63
2018-08-13T23:53:27.150Z,6.03
2018-08-13T23:55:55.630Z,5.27
2018-08-13T23:58:24.130Z,6.83
